createdAt,value
2019-06-10T00:01:35.279Z,17.40
2019-06-10T00:04:08.237Z,17.40
2019-06-10T00:06:35.708Z,17.60
2019-06-10T00:09:08.161Z,17.40
2019-06-10T00:11:37.575Z,17.30
2019-06-10T00:14:07.385Z,17.50
2019-06-10T00:16:36.872Z,17.60
2019-06-10T00:19:08.051Z,17.80
2019-06-10T00:21:37.158Z,17.40
2019-06-10T00:24:07.268Z,17.30
2019-06-10T00:26:37.364Z,17.40
2019-06-10T00:29:07.928Z,17.40
2019-06-10T00:31:37.794Z,17.30
2019-06-10T00:34:07.930Z,17.30
2019-06-10T00:36:38.306Z,17.20
2019-06-10T00:39:08.840Z,17.20
2019-06-10T00:41:39.225Z,17.30
2019-06-10T00:44:08.468Z,17.30
2019-06-10T00:46:37.844Z,17.30
2019-06-10T00:49:08.178Z,17.30
2019-06-10T00:51:38.229Z,17.20
2019-06-10T00:54:08.605Z,17.00
2019-06-10T00:56:41.405Z,17.00
2019-06-10T00:59:14.795Z,16.90
2019-06-10T01:01:41.962Z,16.80
2019-06-10T01:04:14.405Z,17.00
2019-06-10T01:06:42.454Z,17.20
2019-06-10T01:09:14.828Z,17.20
2019-06-10T01:11:42.947Z,17.20
2019-06-10T01:14:14.166Z,17.30
2019-06-10T01:16:43.439Z,17.40
2019-06-10T01:19:14.342Z,17.20
2019-06-10T01:21:43.892Z,17.30
2019-06-10T01:24:14.749Z,17.60
2019-06-10T01:26:44.195Z,17.20
2019-06-10T01:29:14.341Z,17.10
2019-06-10T01:31:44.466Z,17.10
2019-06-10T01:34:15.053Z,17.10
2019-06-10T01:36:44.420Z,16.90
2019-06-10T01:39:15.154Z,17.00
2019-06-10T01:41:44.622Z,16.70
2019-06-10T01:44:14.676Z,16.60
2019-06-10T01:46:44.885Z,16.70
2019-06-10T01:49:15.131Z,16.90
2019-06-10T01:51:45.097Z,16.90
2019-06-10T01:54:15.581Z,17.00
2019-06-10T01:56:45.446Z,17.10
2019-06-10T01:59:15.755Z,17.30
2019-06-10T02:02:13.313Z,17.10
2019-06-10T02:04:42.709Z,17.00
2019-06-10T02:07:15.562Z,16.60
2019-06-10T02:09:43.134Z,16.40
2019-06-10T02:12:15.897Z,16.60
2019-06-10T02:14:43.521Z,16.70
2019-06-10T02:17:15.922Z,16.80
2019-06-10T02:19:43.933Z,17.00
2019-06-10T02:22:16.692Z,17.20
2019-06-10T02:24:44.144Z,17.00
2019-06-10T02:27:14.825Z,17.10
2019-06-10T02:29:44.553Z,16.90
2019-06-10T02:32:18.663Z,16.60
2019-06-10T02:35:01.107Z,17.00
2019-06-10T02:37:20.184Z,16.90
2019-06-10T02:39:46.990Z,17.00
2019-06-10T02:42:30.124Z,16.90
2019-06-10T02:44:54.111Z,16.80
2019-06-10T02:47:31.713Z,16.80
2019-06-10T02:50:01.882Z,16.80
2019-06-10T02:52:32.488Z,16.60
2019-06-10T02:54:56.550Z,16.50
2019-06-10T02:57:34.857Z,16.60
2019-06-10T02:59:56.859Z,16.70
2019-06-10T03:02:30.018Z,16.70
2019-06-10T03:04:57.164Z,16.50
2019-06-10T03:07:29.347Z,16.50
2019-06-10T03:09:57.394Z,16.40
2019-06-10T03:12:26.623Z,16.30
2019-06-10T03:14:55.946Z,16.60
2019-06-10T03:17:26.573Z,16.50
2019-06-10T03:19:55.949Z,16.50
2019-06-10T03:22:25.883Z,16.60
2019-06-10T03:24:55.275Z,16.80
2019-06-10T03:27:27.481Z,16.80
2019-06-10T03:29:55.625Z,16.90
2019-06-10T03:32:32.615Z,16.80
2019-06-10T03:34:55.997Z,16.80
2019-06-10T03:37:26.311Z,16.80
2019-06-10T03:39:56.302Z,16.80
2019-06-10T03:42:27.779Z,16.40
2019-06-10T03:44:56.604Z,16.20
2019-06-10T03:47:27.215Z,16.40
2019-06-10T03:49:56.963Z,16.50
2019-06-10T03:52:27.187Z,16.50
2019-06-10T03:54:57.439Z,16.80
2019-06-10T03:57:28.506Z,16.60
2019-06-10T03:59:57.886Z,16.40
2019-06-10T04:02:28.398Z,16.30
2019-06-10T04:04:57.956Z,16.50
2019-06-10T04:07:30.624Z,16.90
2019-06-10T04:09:58.308Z,17.00
2019-06-10T04:12:29.060Z,17.10
2019-06-10T04:14:58.547Z,17.20
2019-06-10T04:17:28.775Z,17.10
2019-06-10T04:20:09.386Z,17.00
2019-06-10T04:22:29.268Z,16.90
2019-06-10T04:24:58.508Z,17.00
2019-06-10T04:27:28.448Z,17.20
2019-06-10T04:29:57.851Z,17.10
2019-06-10T04:32:27.784Z,17.10
2019-06-10T04:34:58.223Z,17.10
2019-06-10T04:37:28.078Z,17.00
2019-06-10T04:39:58.632Z,17.10
2019-06-10T04:42:28.939Z,17.00
2019-06-10T04:44:58.422Z,17.00
2019-06-10T04:47:28.410Z,17.10
2019-06-10T04:49:58.985Z,17.20
2019-06-10T04:52:29.650Z,17.30
2019-06-10T04:54:59.346Z,17.40
2019-06-10T04:57:29.667Z,17.50
2019-06-10T04:59:59.043Z,17.30
2019-06-10T05:02:29.063Z,17.30
2019-06-10T05:04:59.481Z,17.20
2019-06-10T05:07:33.422Z,17.20
2019-06-10T05:09:59.730Z,17.10
2019-06-10T05:12:29.642Z,17.20
2019-06-10T05:14:59.131Z,17.30
2019-06-10T05:17:29.694Z,17.00
2019-06-10T05:19:59.417Z,17.30
2019-06-10T05:22:29.932Z,17.30
2019-06-10T05:25:02.287Z,17.50
2019-06-10T05:27:32.926Z,17.40
2019-06-10T05:30:02.354Z,17.60
2019-06-10T05:32:33.443Z,17.70
2019-06-10T05:35:03.649Z,17.70
2019-06-10T05:37:33.933Z,17.80
2019-06-10T05:40:04.524Z,18.10
2019-06-10T05:42:35.948Z,18.00
2019-06-10T05:45:06.340Z,17.90
2019-06-10T05:47:36.060Z,18.10
2019-06-10T05:50:06.063Z,18.10
2019-06-10T05:52:35.394Z,18.20
2019-06-10T05:55:04.795Z,18.30
2019-06-10T05:57:35.500Z,18.10
2019-06-10T06:00:11.390Z,17.90
2019-06-10T06:02:38.027Z,18.20
2019-06-10T06:05:07.431Z,18.40
2019-06-10T06:07:37.568Z,18.10
2019-06-10T06:10:07.719Z,18.20
2019-06-10T06:12:37.862Z,18.20
2019-06-10T06:15:07.973Z,18.60
2019-06-10T06:17:38.537Z,18.50
2019-06-10T06:20:09.130Z,18.40
2019-06-10T06:22:38.375Z,18.60
2019-06-10T06:25:08.338Z,18.90
2019-06-10T06:27:38.604Z,19.10
2019-06-10T06:30:14.679Z,19.10
2019-06-10T06:32:43.400Z,18.80
2019-06-10T06:35:12.633Z,19.00
2019-06-10T06:37:42.758Z,19.30
2019-06-10T06:40:13.493Z,19.50
2019-06-10T06:42:43.508Z,19.40
2019-06-10T06:45:13.393Z,19.30
2019-06-10T06:47:43.657Z,19.10
2019-06-10T06:50:14.661Z,18.90
2019-06-10T06:53:15.273Z,19.50
2019-06-10T06:55:17.255Z,19.60
2019-06-10T06:57:46.667Z,19.90
2019-06-10T07:00:40.837Z,20.10
2019-06-10T07:02:47.919Z,20.30
2019-06-10T07:05:17.373Z,20.00
2019-06-10T07:07:48.976Z,20.30
2019-06-10T07:10:18.550Z,20.40
2019-06-10T07:12:49.654Z,19.90
2019-06-10T07:15:23.925Z,20.20
2019-06-10T07:17:53.308Z,20.50
2019-06-10T07:20:23.042Z,21.30
2019-06-10T07:22:53.307Z,22.30
2019-06-10T07:25:23.050Z,23.90
2019-06-10T07:27:52.793Z,22.60
2019-06-10T07:30:23.043Z,23.30
2019-06-10T07:32:53.136Z,22.80
2019-06-10T07:35:22.628Z,24.20
2019-06-10T07:37:52.431Z,23.80
2019-06-10T07:40:22.290Z,24.00
2019-06-10T07:42:53.047Z,22.60
2019-06-10T07:45:22.520Z,23.20
2019-06-10T07:47:52.335Z,23.30
2019-06-10T07:50:22.736Z,22.40
2019-06-10T07:52:52.935Z,22.30
2019-06-10T07:55:22.382Z,21.90
2019-06-10T07:57:53.082Z,21.50
2019-06-10T08:00:24.034Z,21.40
2019-06-10T08:02:53.456Z,21.20
2019-06-10T08:05:23.527Z,21.10
2019-06-10T08:07:54.759Z,21.00
2019-06-10T08:10:24.087Z,20.80
2019-06-10T08:12:53.411Z,21.00
2019-06-10T08:15:23.026Z,21.00
2019-06-10T08:17:53.076Z,21.20
2019-06-10T08:20:43.175Z,21.30
2019-06-10T08:23:12.625Z,21.20
2019-06-10T08:25:46.806Z,21.00
2019-06-10T08:28:13.473Z,21.60
2019-06-10T08:30:45.921Z,21.50
2019-06-10T08:33:14.600Z,21.50
2019-06-10T08:35:52.110Z,22.20
2019-06-10T08:38:15.289Z,22.30
2019-06-10T08:40:46.554Z,22.50
2019-06-10T08:43:15.746Z,22.10
2019-06-10T08:45:47.038Z,21.80
2019-06-10T08:48:16.068Z,21.80
2019-06-10T08:50:48.324Z,21.50
2019-06-10T08:53:18.224Z,22.60
2019-06-10T08:55:50.068Z,23.40
2019-06-10T08:58:18.488Z,23.10
2019-06-10T09:00:49.488Z,22.60
2019-06-10T09:03:18.970Z,22.30
2019-06-10T09:05:50.917Z,21.60
2019-06-10T09:08:19.427Z,21.10
2019-06-10T09:10:51.609Z,21.10
2019-06-10T09:13:22.250Z,20.50
2019-06-10T09:16:05.987Z,20.30
2019-06-10T09:18:23.290Z,20.60
2019-06-10T09:20:55.849Z,21.20
2019-06-10T09:23:25.699Z,21.10
2019-06-10T09:25:57.531Z,20.90
2019-06-10T09:28:25.817Z,21.20
2019-06-10T09:30:59.460Z,21.10
2019-06-10T09:33:26.287Z,21.50
2019-06-10T09:35:55.654Z,22.60
2019-06-10T09:38:25.003Z,22.10
2019-06-10T09:41:01.299Z,21.90
2019-06-10T09:43:25.798Z,22.30
2019-06-10T09:45:56.488Z,23.00
2019-06-10T09:48:27.436Z,23.70
2019-06-10T09:50:58.528Z,24.70
2019-06-10T09:53:41.392Z,24.80
2019-06-10T09:55:58.937Z,26.00
2019-06-10T09:58:28.346Z,26.90
2019-06-10T10:00:58.893Z,27.10
2019-06-10T10:03:28.315Z,25.50
2019-06-10T10:06:10.114Z,23.60
2019-06-10T10:08:28.655Z,21.90
2019-06-10T10:10:59.323Z,22.20
2019-06-10T10:13:28.900Z,23.00
2019-06-10T10:15:58.373Z,23.40
2019-06-10T10:18:27.860Z,22.90
2019-06-10T10:21:00.299Z,22.30
2019-06-10T10:23:28.258Z,22.40
2019-06-10T10:25:57.606Z,22.20
2019-06-10T10:28:27.038Z,22.10
2019-06-10T10:30:58.116Z,21.80
2019-06-10T10:33:30.050Z,21.50
2019-06-10T10:35:58.572Z,21.50
2019-06-10T10:38:27.998Z,21.00
2019-06-10T10:40:59.203Z,20.70
2019-06-10T10:43:32.967Z,20.40
2019-06-10T10:46:04.230Z,20.20
2019-06-10T10:48:33.200Z,19.90
2019-06-10T10:51:03.440Z,19.80
2019-06-10T10:53:33.006Z,19.70
2019-06-10T10:56:02.832Z,19.70
2019-06-10T10:58:33.197Z,19.70
2019-06-10T11:01:04.168Z,19.80
2019-06-10T11:03:34.320Z,20.10
2019-06-10T11:06:04.557Z,20.00
2019-06-10T11:08:34.023Z,20.00
2019-06-10T11:11:05.885Z,20.20
2019-06-10T11:13:36.989Z,20.10
2019-06-10T11:16:06.569Z,20.00
2019-06-10T11:18:36.115Z,20.00
2019-06-10T11:21:05.692Z,20.00
2019-06-10T11:23:35.172Z,20.20
2019-06-10T11:26:04.651Z,20.40
2019-06-10T11:28:34.117Z,20.40
2019-06-10T11:31:04.015Z,20.20
2019-06-10T11:33:33.802Z,20.40
2019-06-10T11:36:03.235Z,20.20
2019-06-10T11:38:33.069Z,20.20
2019-06-10T11:41:02.684Z,20.40
2019-06-10T11:43:33.213Z,20.30
2019-06-10T11:46:07.221Z,20.30
2019-06-10T11:48:33.992Z,20.10
2019-06-10T11:51:04.550Z,19.90
2019-06-10T11:53:34.748Z,19.90
2019-06-10T11:56:04.250Z,20.10
2019-06-10T11:58:33.634Z,20.50
2019-06-10T12:01:03.742Z,20.90
2019-06-10T12:03:33.449Z,21.30
2019-06-10T12:06:05.424Z,21.50
2019-06-10T12:08:33.842Z,22.20
2019-06-10T12:11:03.336Z,22.30
2019-06-10T12:13:34.173Z,22.00
2019-06-10T12:18:34.922Z,22.00
2019-06-10T12:21:04.874Z,22.00
2019-06-10T12:23:34.259Z,22.00
2019-06-10T12:26:05.007Z,21.70
2019-06-10T12:28:34.991Z,21.70
2019-06-10T12:31:07.090Z,21.60
2019-06-10T12:33:35.715Z,21.00
2019-06-10T12:36:07.131Z,20.80
2019-06-10T12:38:36.198Z,20.80
2019-06-10T12:41:09.619Z,20.40
2019-06-10T12:43:36.631Z,20.60
2019-06-10T12:46:06.052Z,20.80
2019-06-10T12:48:35.567Z,21.20
2019-06-10T12:51:08.796Z,20.70
2019-06-10T12:53:36.115Z,21.20
2019-06-10T12:56:10.059Z,21.20
2019-06-10T12:58:36.445Z,21.60
2019-06-10T13:01:06.317Z,21.90
2019-06-10T13:03:36.704Z,21.80
2019-06-10T13:06:08.029Z,22.10
2019-06-10T13:08:37.054Z,21.70
2019-06-10T13:11:06.601Z,21.50
2019-06-10T13:13:35.911Z,21.50
2019-06-10T13:16:08.280Z,21.70
2019-06-10T13:18:36.556Z,21.90
2019-06-10T13:21:11.887Z,22.00
2019-06-10T13:23:36.847Z,22.00
2019-06-10T13:26:11.468Z,22.00
2019-06-10T13:28:37.343Z,22.00
2019-06-10T13:31:09.847Z,21.80
2019-06-10T13:33:37.892Z,21.30
2019-06-10T13:36:08.644Z,21.30
2019-06-10T13:38:38.239Z,21.30
2019-06-10T13:41:07.859Z,21.10
2019-06-10T13:43:37.201Z,20.90
2019-06-10T13:46:08.991Z,21.10
2019-06-10T13:48:37.645Z,21.10
2019-06-10T13:51:10.449Z,20.80
2019-06-10T13:53:38.033Z,20.80
2019-06-10T13:56:36.468Z,20.60
2019-06-10T13:58:38.367Z,20.70
2019-06-10T14:01:12.975Z,20.30
2019-06-10T14:03:38.927Z,20.50
2019-06-10T14:06:28.358Z,20.50
2019-06-10T14:08:39.344Z,20.60
2019-06-10T14:11:08.691Z,20.80
2019-06-10T14:13:38.015Z,21.00
2019-06-10T14:16:07.627Z,21.20
2019-06-10T14:18:37.065Z,20.70
2019-06-10T14:21:09.636Z,20.90
2019-06-10T14:23:37.430Z,20.90
2019-06-10T14:26:08.325Z,20.50
2019-06-10T14:28:40.954Z,20.90
2019-06-10T14:31:29.886Z,20.90
2019-06-10T14:33:42.753Z,21.30
2019-06-10T14:36:15.060Z,21.20
2019-06-10T14:38:42.941Z,21.30
2019-06-10T14:41:12.507Z,21.10
2019-06-10T14:43:42.479Z,21.00
2019-06-10T14:46:15.595Z,21.00
2019-06-10T14:48:42.986Z,20.90
2019-06-10T14:51:16.255Z,21.00
2019-06-10T14:53:43.911Z,21.00
2019-06-10T14:56:17.215Z,20.90
2019-06-10T14:58:44.707Z,20.90
2019-06-10T15:01:24.096Z,20.90
2019-06-10T15:03:45.229Z,20.80
2019-06-10T15:06:15.607Z,20.90
2019-06-10T15:08:45.061Z,20.80
2019-06-10T15:11:15.776Z,20.60
2019-06-10T15:13:45.475Z,20.40
2019-06-10T15:16:16.392Z,20.20
2019-06-10T15:18:46.059Z,20.10
2019-06-10T15:21:15.717Z,20.00
2019-06-10T15:23:45.455Z,20.30
2019-06-10T15:26:17.357Z,20.10
2019-06-10T15:28:45.874Z,19.80
2019-06-10T15:31:16.776Z,19.70
2019-06-10T15:33:46.312Z,19.90
2019-06-10T15:36:15.618Z,19.90
2019-06-10T15:38:45.051Z,20.10
2019-06-10T15:41:16.922Z,20.20
2019-06-10T15:43:45.565Z,20.70
2019-06-10T15:46:17.208Z,20.80
2019-06-10T15:48:45.755Z,20.80
2019-06-10T15:51:17.476Z,20.80
2019-06-10T15:53:46.213Z,21.10
2019-06-10T15:56:29.742Z,20.90
2019-06-10T15:58:46.568Z,20.90
2019-06-10T16:01:20.046Z,21.00
2019-06-10T16:03:46.894Z,20.60
2019-06-10T16:06:16.337Z,20.90
2019-06-10T16:08:45.705Z,20.90
2019-06-10T16:11:18.045Z,20.80
2019-06-10T16:13:46.238Z,20.80
2019-06-10T16:16:16.863Z,20.80
2019-06-10T16:18:46.364Z,20.50
2019-06-10T16:21:20.078Z,20.40
2019-06-10T16:23:50.064Z,20.60
2019-06-10T16:26:20.045Z,20.50
2019-06-10T16:28:52.096Z,20.90
2019-06-10T16:31:23.732Z,20.70
2019-06-10T16:33:52.833Z,20.90
2019-06-10T16:36:25.794Z,20.80
2019-06-10T16:38:53.827Z,20.60
2019-06-10T16:41:26.091Z,20.60
2019-06-10T16:43:54.500Z,20.40
2019-06-10T16:46:24.758Z,20.40
2019-06-10T16:48:54.288Z,20.10
2019-06-10T16:51:23.743Z,20.10
2019-06-10T16:53:53.225Z,20.20
2019-06-10T16:56:24.792Z,20.30
2019-06-10T16:58:53.665Z,20.40
2019-06-10T17:01:25.461Z,20.40
2019-06-10T17:03:54.068Z,20.30
2019-06-10T17:06:25.157Z,20.30
2019-06-10T17:08:54.555Z,20.40
2019-06-10T17:11:25.788Z,20.60
2019-06-10T17:14:03.204Z,20.60
2019-06-10T17:16:32.683Z,20.50
2019-06-10T17:19:02.505Z,20.30
2019-06-10T17:21:34.641Z,20.30
2019-06-10T17:24:03.622Z,20.10
2019-06-10T17:26:37.826Z,20.00
2019-06-10T17:29:04.722Z,19.90
2019-06-10T17:31:35.139Z,20.10
2019-06-10T17:34:05.142Z,20.20
2019-06-10T17:36:35.463Z,20.20
2019-06-10T17:39:07.622Z,20.30
2019-06-10T17:41:37.058Z,20.00
2019-06-10T17:44:06.590Z,20.20
2019-06-10T17:46:36.051Z,19.90
2019-06-10T17:49:05.890Z,20.00
2019-06-10T17:51:35.804Z,20.00
2019-06-10T17:54:05.444Z,20.10
2019-06-10T17:56:36.383Z,20.00
2019-06-10T17:59:06.002Z,19.40
2019-06-10T18:01:36.715Z,19.30
2019-06-10T18:04:06.253Z,19.20
2019-06-10T18:06:36.487Z,19.00
2019-06-10T18:09:08.194Z,19.00
2019-06-10T18:11:37.699Z,19.20
2019-06-10T18:14:07.200Z,19.00
2019-06-10T18:16:36.865Z,19.10
2019-06-10T18:19:06.416Z,19.00
2019-06-10T18:21:36.448Z,18.80
2019-06-10T18:24:08.235Z,18.80
2019-06-10T18:26:38.022Z,18.50
2019-06-10T18:29:09.366Z,18.60
2019-06-10T18:31:39.248Z,18.50
2019-06-10T18:34:08.779Z,18.60
2019-06-10T18:36:38.323Z,18.60
2019-06-10T18:39:08.429Z,18.30
2019-06-10T18:41:38.026Z,18.30
2019-06-10T18:44:19.940Z,18.30
2019-06-10T18:46:40.207Z,18.40
2019-06-10T18:49:13.061Z,18.60
2019-06-10T18:51:44.402Z,18.50
2019-06-10T18:54:13.907Z,18.50
2019-06-10T18:56:43.333Z,18.60
2019-06-10T18:59:17.908Z,18.70
2019-06-10T19:01:44.011Z,18.70
2019-06-10T19:04:13.445Z,18.60
2019-06-10T19:06:43.256Z,18.30
2019-06-10T19:09:12.983Z,18.40
2019-06-10T19:11:43.427Z,18.40
2019-06-10T19:14:13.117Z,18.40
2019-06-10T19:16:43.068Z,18.40
2019-06-10T19:19:12.871Z,18.30
2019-06-10T19:21:44.138Z,18.40
2019-06-10T19:24:13.654Z,18.30
2019-06-10T19:26:45.064Z,18.40
2019-06-10T19:29:27.489Z,18.40
2019-06-10T19:32:04.354Z,18.10
2019-06-10T19:34:33.584Z,18.10
2019-06-10T19:37:03.074Z,18.00
2019-06-10T19:39:35.067Z,17.80
2019-06-10T19:42:03.700Z,17.80
2019-06-10T19:44:34.314Z,18.10
2019-06-10T19:47:04.472Z,18.20
2019-06-10T19:49:53.457Z,18.10
2019-06-10T19:52:23.516Z,18.10
2019-06-10T19:54:53.193Z,18.20
2019-06-10T19:57:22.777Z,17.90
2019-06-10T20:00:07.209Z,17.90
2019-06-10T20:02:23.380Z,17.70
2019-06-10T20:04:52.942Z,17.70
2019-06-10T20:07:23.068Z,17.50
2019-06-10T20:09:52.757Z,17.40
2019-06-10T20:12:22.906Z,17.30
2019-06-10T20:14:52.980Z,17.30
2019-06-10T20:17:22.882Z,17.50
2019-06-10T20:19:52.422Z,17.40
2019-06-10T20:22:22.822Z,17.40
2019-06-10T20:24:52.593Z,17.40
2019-06-10T20:27:22.784Z,17.40
2019-06-10T20:30:04.571Z,17.40
2019-06-10T20:32:23.492Z,17.50
2019-06-10T20:34:53.033Z,17.60
2019-06-10T20:37:22.666Z,17.40
2019-06-10T20:39:53.916Z,17.30
2019-06-10T20:42:23.599Z,17.30
2019-06-10T20:44:53.117Z,17.20
2019-06-10T20:47:22.989Z,17.40
2019-06-10T20:49:55.985Z,17.00
2019-06-10T20:52:23.694Z,16.90
2019-06-10T20:54:53.308Z,17.10
2019-06-10T20:57:22.791Z,16.90
2019-06-10T20:59:52.223Z,17.20
2019-06-10T21:02:22.483Z,17.20
2019-06-10T21:04:53.184Z,17.00
2019-06-10T21:07:24.530Z,16.80
2019-06-10T21:09:55.105Z,17.00
2019-06-10T21:12:24.528Z,17.10
2019-06-10T21:14:53.900Z,17.00
2019-06-10T21:17:23.297Z,17.10
2019-06-10T21:19:53.752Z,17.30
2019-06-10T21:22:23.410Z,17.10
2019-06-10T21:24:53.528Z,16.90
2019-06-10T21:27:23.912Z,16.90
2019-06-10T21:29:54.700Z,17.00
2019-06-10T21:32:24.360Z,16.70
2019-06-10T21:34:53.963Z,16.70
2019-06-10T21:37:23.450Z,16.60
2019-06-10T21:39:55.421Z,16.70
2019-06-10T21:42:24.316Z,16.80
2019-06-10T21:44:53.766Z,16.90
2019-06-10T21:47:23.524Z,17.10
2019-06-10T21:49:54.477Z,17.10
2019-06-10T21:52:24.087Z,17.10
2019-06-10T21:54:53.643Z,17.20
2019-06-10T21:57:23.088Z,17.10
2019-06-10T21:59:54.982Z,17.20
2019-06-10T22:02:23.741Z,17.40
2019-06-10T22:04:55.161Z,17.10
2019-06-10T22:07:24.370Z,17.10
2019-06-10T22:09:56.081Z,17.20
2019-06-10T22:12:25.719Z,17.20
2019-06-10T22:14:55.177Z,17.30
2019-06-10T22:17:24.450Z,17.20
2019-06-10T22:19:56.310Z,17.10
2019-06-10T22:22:25.048Z,17.30
2019-06-10T22:24:57.263Z,17.30
2019-06-10T22:27:26.608Z,17.30
2019-06-10T22:29:57.178Z,17.30
2019-06-10T22:32:26.628Z,17.10
2019-06-10T22:34:57.095Z,17.10
2019-06-10T22:37:26.549Z,17.30
2019-06-10T22:39:56.648Z,17.10
2019-06-10T22:42:26.969Z,16.80
2019-06-10T22:44:57.974Z,16.80
2019-06-10T22:47:27.515Z,16.90
2019-06-10T22:49:58.463Z,16.80
2019-06-10T22:52:27.957Z,16.80
2019-06-10T22:54:58.652Z,16.70
2019-06-10T22:57:28.165Z,16.70
2019-06-10T22:59:57.831Z,16.70
2019-06-10T23:02:28.615Z,16.70
2019-06-10T23:04:59.903Z,16.60
2019-06-10T23:07:28.984Z,16.90
2019-06-10T23:09:59.096Z,16.90
2019-06-10T23:12:28.595Z,16.60
2019-06-10T23:14:59.229Z,16.50
2019-06-10T23:17:28.612Z,16.40
2019-06-10T23:19:58.448Z,16.30
2019-06-10T23:22:29.011Z,16.20
2019-06-10T23:24:58.256Z,16.30
2019-06-10T23:27:27.509Z,16.70
2019-06-10T23:29:57.546Z,16.70
2019-06-10T23:32:27.649Z,16.80
2019-06-10T23:34:58.174Z,16.90
2019-06-10T23:37:27.880Z,16.70
2019-06-10T23:39:57.275Z,16.80
2019-06-10T23:42:26.482Z,16.60
2019-06-10T23:44:57.215Z,16.60
2019-06-10T23:47:26.533Z,16.70
2019-06-10T23:49:55.790Z,16.40
2019-06-10T23:52:24.985Z,16.20
2019-06-10T23:54:54.467Z,16.30
2019-06-10T23:57:23.797Z,16.40
2019-06-10T23:59:54.072Z,16.50
